sensor_id;sensor_type;location;lat;lon;timestamp;P1;durP1;ratioP1;P2;durP2;ratioP2
53391;SDS011;41667;51.922;8.850;2022-12-07T00:01:26;18.60;;;10.90;;
53391;SDS011;41667;51.922;8.850;2022-12-07T00:03:53;22.33;;;12.32;;
53391;SDS011;41667;51.922;8.850;2022-12-07T00:06:19;20.48;;;10.30;;
53391;SDS011;41667;51.922;8.850;2022-12-07T00:08:44;22.83;;;12.27;;
53391;SDS011;41667;51.922;8.850;2022-12-07T00:11:14;21.13;;;11.63;;
53391;SDS011;41667;51.922;8.850;2022-12-07T00:13:39;26.00;;;12.73;;
53391;SDS011;41667;51.922;8.850;2022-12-07T00:16:06;24.98;;;12.48;;
53391;SDS011;41667;51.922;8.850;2022-12-07T00:18:31;21.58;;;12.98;;
53391;SDS011;41667;51.922;8.850;2022-12-07T00:21:07;27.13;;;14.98;;
53391;SDS011;41667;51.922;8.850;2022-12-07T00:23:33;25.98;;;14.23;;
53391;SDS011;41667;51.922;8.850;2022-12-07T00:26:09;26.83;;;13.32;;
53391;SDS011;41667;51.922;8.850;2022-12-07T00:28:34;37.45;;;17.52;;
53391;SDS011;41667;51.922;8.850;2022-12-07T00:31:04;28.15;;;16.27;;
53391;SDS011;41667;51.922;8.850;2022-12-07T00:33:30;32.72;;;17.88;;
53391;SDS011;41667;51.922;8.850;2022-12-07T00:35:56;33.55;;;17.30;;
53391;SDS011;41667;51.922;8.850;2022-12-07T00:38:21;25.67;;;14.75;;
53391;SDS011;41667;51.922;8.850;2022-12-07T00:40:53;31.70;;;16.77;;
53391;SDS011;41667;51.922;8.850;2022-12-07T00:45:43;35.28;;;16.02;;
53391;SDS011;41667;51.922;8.850;2022-12-07T00:48:08;34.77;;;17.83;;
53391;SDS011;41667;51.922;8.850;2022-12-07T00:50:34;32.65;;;16.27;;
53391;SDS011;41667;51.922;8.850;2022-12-07T00:52:59;45.73;;;19.47;;
53391;SDS011;41667;51.922;8.850;2022-12-07T00:55:24;36.17;;;18.47;;
53391;SDS011;41667;51.922;8.850;2022-12-07T00:57:49;42.20;;;20.33;;
53391;SDS011;41667;51.922;8.850;2022-12-07T01:00:14;31.95;;;15.35;;
53391;SDS011;41667;51.922;8.850;2022-12-07T01:02:39;43.15;;;20.60;;
53391;SDS011;41667;51.922;8.850;2022-12-07T01:05:05;35.20;;;17.93;;
53391;SDS011;41667;51.922;8.850;2022-12-07T01:07:30;36.88;;;19.35;;
53391;SDS011;41667;51.922;8.850;2022-12-07T01:09:55;39.58;;;19.55;;
53391;SDS011;41667;51.922;8.850;2022-12-07T01:12:20;37.67;;;17.48;;
53391;SDS011;41667;51.922;8.850;2022-12-07T01:14:45;39.30;;;18.70;;
53391;SDS011;41667;51.922;8.850;2022-12-07T01:17:11;40.47;;;18.73;;
53391;SDS011;41667;51.922;8.850;2022-12-07T01:19:36;38.40;;;17.83;;
53391;SDS011;41667;51.922;8.850;2022-12-07T01:22:01;33.10;;;16.93;;
53391;SDS011;41667;51.922;8.850;2022-12-07T01:24:26;34.60;;;17.90;;
53391;SDS011;41667;51.922;8.850;2022-12-07T01:26:51;35.70;;;18.47;;
53391;SDS011;41667;51.922;8.850;2022-12-07T01:29:16;33.50;;;16.27;;
53391;SDS011;41667;51.922;8.850;2022-12-07T01:31:42;37.37;;;18.27;;
53391;SDS011;41667;51.922;8.850;2022-12-07T01:34:07;34.10;;;15.67;;
53391;SDS011;41667;51.922;8.850;2022-12-07T01:36:34;35.92;;;18.60;;
53391;SDS011;41667;51.922;8.850;2022-12-07T01:39:01;30.70;;;15.10;;
53391;SDS011;41667;51.922;8.850;2022-12-07T01:41:32;29.70;;;15.05;;
53391;SDS011;41667;51.922;8.850;2022-12-07T01:44:08;24.50;;;13.50;;
53391;SDS011;41667;51.922;8.850;2022-12-07T01:46:33;29.02;;;15.05;;
53391;SDS011;41667;51.922;8.850;2022-12-07T01:48:59;25.03;;;12.00;;
53391;SDS011;41667;51.922;8.850;2022-12-07T01:51:24;35.20;;;13.55;;
53391;SDS011;41667;51.922;8.850;2022-12-07T01:53:50;24.98;;;13.20;;
53391;SDS011;41667;51.922;8.850;2022-12-07T01:56:17;26.30;;;14.03;;
53391;SDS011;41667;51.922;8.850;2022-12-07T01:58:43;21.88;;;11.85;;
53391;SDS011;41667;51.922;8.850;2022-12-07T02:01:09;20.00;;;12.10;;
53391;SDS011;41667;51.922;8.850;2022-12-07T02:03:38;22.70;;;12.20;;
53391;SDS011;41667;51.922;8.850;2022-12-07T02:06:04;23.80;;;13.13;;
53391;SDS011;41667;51.922;8.850;2022-12-07T02:08:29;30.85;;;15.00;;
53391;SDS011;41667;51.922;8.850;2022-12-07T02:10:54;28.87;;;15.60;;
53391;SDS011;41667;51.922;8.850;2022-12-07T02:13:21;25.17;;;13.53;;
53391;SDS011;41667;51.922;8.850;2022-12-07T02:18:22;30.48;;;14.82;;
53391;SDS011;41667;51.922;8.850;2022-12-07T02:20:55;25.30;;;13.82;;
53391;SDS011;41667;51.922;8.850;2022-12-07T02:25:55;21.20;;;11.30;;
53391;SDS011;41667;51.922;8.850;2022-12-07T02:28:35;27.67;;;13.65;;
53391;SDS011;41667;51.922;8.850;2022-12-07T02:31:08;18.10;;;12.07;;
53391;SDS011;41667;51.922;8.850;2022-12-07T02:33:37;19.48;;;11.05;;
53391;SDS011;41667;51.922;8.850;2022-12-07T02:36:10;22.00;;;11.73;;
53391;SDS011;41667;51.922;8.850;2022-12-07T02:38:51;22.58;;;11.30;;
53391;SDS011;41667;51.922;8.850;2022-12-07T02:41:26;18.90;;;11.05;;
53391;SDS011;41667;51.922;8.850;2022-12-07T02:43:56;19.88;;;10.65;;
53391;SDS011;41667;51.922;8.850;2022-12-07T02:46:23;18.00;;;10.50;;
53391;SDS011;41667;51.922;8.850;2022-12-07T02:48:50;20.50;;;11.52;;
53391;SDS011;41667;51.922;8.850;2022-12-07T02:51:18;16.95;;;10.50;;
53391;SDS011;41667;51.922;8.850;2022-12-07T02:53:43;15.77;;;8.80;;
53391;SDS011;41667;51.922;8.850;2022-12-07T03:03:54;20.48;;;10.88;;
53391;SDS011;41667;51.922;8.850;2022-12-07T03:06:24;15.88;;;7.68;;
53391;SDS011;41667;51.922;8.850;2022-12-07T03:08:56;12.60;;;6.50;;
53391;SDS011;41667;51.922;8.850;2022-12-07T03:19:06;19.48;;;9.52;;
53391;SDS011;41667;51.922;8.850;2022-12-07T03:21:39;12.25;;;7.82;;
53391;SDS011;41667;51.922;8.850;2022-12-07T03:24:12;11.48;;;7.40;;
53391;SDS011;41667;51.922;8.850;2022-12-07T03:26:39;11.80;;;6.75;;
53391;SDS011;41667;51.922;8.850;2022-12-07T03:29:07;10.48;;;6.57;;
53391;SDS011;41667;51.922;8.850;2022-12-07T03:31:36;12.43;;;7.85;;
53391;SDS011;41667;51.922;8.850;2022-12-07T03:36:36;15.55;;;6.97;;
53391;SDS011;41667;51.922;8.850;2022-12-07T03:39:04;9.43;;;7.00;;
53391;SDS011;41667;51.922;8.850;2022-12-07T03:41:32;14.13;;;7.00;;
53391;SDS011;41667;51.922;8.850;2022-12-07T03:43:59;13.45;;;7.40;;
53391;SDS011;41667;51.922;8.850;2022-12-07T03:46:30;15.60;;;7.90;;
53391;SDS011;41667;51.922;8.850;2022-12-07T03:54:38;10.32;;;6.03;;
53391;SDS011;41667;51.922;8.850;2022-12-07T03:56:54;14.13;;;6.20;;
53391;SDS011;41667;51.922;8.850;2022-12-07T03:59:20;11.30;;;6.38;;
53391;SDS011;41667;51.922;8.850;2022-12-07T04:01:51;8.52;;;5.40;;
53391;SDS011;41667;51.922;8.850;2022-12-07T04:04:17;13.03;;;6.77;;
53391;SDS011;41667;51.922;8.850;2022-12-07T04:06:42;14.77;;;6.27;;
53391;SDS011;41667;51.922;8.850;2022-12-07T04:09:07;9.25;;;5.75;;
53391;SDS011;41667;51.922;8.850;2022-12-07T04:11:33;9.93;;;6.23;;
53391;SDS011;41667;51.922;8.850;2022-12-07T04:13:58;9.57;;;5.72;;
53391;SDS011;41667;51.922;8.850;2022-12-07T04:16:41;9.43;;;6.15;;
53391;SDS011;41667;51.922;8.850;2022-12-07T04:19:07;12.38;;;6.13;;
53391;SDS011;41667;51.922;8.850;2022-12-07T04:21:32;8.47;;;5.77;;
53391;SDS011;41667;51.922;8.850;2022-12-07T04:23:57;13.18;;;6.30;;
53391;SDS011;41667;51.922;8.850;2022-12-07T04:26:22;13.23;;;5.63;;
53391;SDS011;41667;51.922;8.850;2022-12-07T04:28:47;12.00;;;5.63;;
53391;SDS011;41667;51.922;8.850;2022-12-07T04:31:12;11.37;;;5.77;;
53391;SDS011;41667;51.922;8.850;2022-12-07T04:33:39;12.88;;;7.25;;
53391;SDS011;41667;51.922;8.850;2022-12-07T04:36:04;10.07;;;5.63;;
53391;SDS011;41667;51.922;8.850;2022-12-07T04:38:30;13.57;;;6.03;;
53391;SDS011;41667;51.922;8.850;2022-12-07T04:40:55;9.20;;;5.23;;
53391;SDS011;41667;51.922;8.850;2022-12-07T04:43:20;13.47;;;4.97;;
53391;SDS011;41667;51.922;8.850;2022-12-07T04:45:46;15.80;;;6.38;;
53391;SDS011;41667;51.922;8.850;2022-12-07T04:48:12;8.77;;;5.82;;
53391;SDS011;41667;51.922;8.850;2022-12-07T04:50:37;13.90;;;6.43;;
53391;SDS011;41667;51.922;8.850;2022-12-07T04:53:03;9.45;;;5.55;;
53391;SDS011;41667;51.922;8.850;2022-12-07T04:55:28;8.85;;;4.60;;
53391;SDS011;41667;51.922;8.850;2022-12-07T04:57:53;8.23;;;5.60;;
53391;SDS011;41667;51.922;8.850;2022-12-07T05:00:18;12.47;;;5.73;;
53391;SDS011;41667;51.922;8.850;2022-12-07T05:02:44;8.27;;;5.65;;
53391;SDS011;41667;51.922;8.850;2022-12-07T05:05:09;10.00;;;6.13;;
53391;SDS011;41667;51.922;8.850;2022-12-07T05:07:34;10.13;;;5.37;;
53391;SDS011;41667;51.922;8.850;2022-12-07T05:09:59;9.37;;;5.50;;
53391;SDS011;41667;51.922;8.850;2022-12-07T05:12:24;5.20;;;4.60;;
53391;SDS011;41667;51.922;8.850;2022-12-07T05:14:49;14.10;;;5.45;;
53391;SDS011;41667;51.922;8.850;2022-12-07T05:17:14;8.50;;;5.03;;
53391;SDS011;41667;51.922;8.850;2022-12-07T05:19:40;7.07;;;5.38;;
53391;SDS011;41667;51.922;8.850;2022-12-07T05:22:05;5.60;;;4.60;;
53391;SDS011;41667;51.922;8.850;2022-12-07T05:24:30;10.17;;;5.10;;
53391;SDS011;41667;51.922;8.850;2022-12-07T05:26:55;10.15;;;5.10;;
53391;SDS011;41667;51.922;8.850;2022-12-07T05:29:20;9.50;;;4.68;;
53391;SDS011;41667;51.922;8.850;2022-12-07T05:31:45;10.07;;;5.15;;
53391;SDS011;41667;51.922;8.850;2022-12-07T05:34:11;10.83;;;5.03;;
53391;SDS011;41667;51.922;8.850;2022-12-07T05:36:36;6.50;;;4.78;;
53391;SDS011;41667;51.922;8.850;2022-12-07T05:39:01;10.20;;;6.00;;
53391;SDS011;41667;51.922;8.850;2022-12-07T05:41:27;7.45;;;5.32;;
53391;SDS011;41667;51.922;8.850;2022-12-07T05:44:12;10.85;;;6.20;;
53391;SDS011;41667;51.922;8.850;2022-12-07T05:46:37;15.68;;;5.88;;
53391;SDS011;41667;51.922;8.850;2022-12-07T05:49:02;9.85;;;5.38;;
53391;SDS011;41667;51.922;8.850;2022-12-07T05:51:27;14.13;;;6.13;;
53391;SDS011;41667;51.922;8.850;2022-12-07T05:53:52;12.53;;;5.13;;
53391;SDS011;41667;51.922;8.850;2022-12-07T05:56:18;14.93;;;5.68;;
53391;SDS011;41667;51.922;8.850;2022-12-07T05:58:43;13.48;;;5.22;;
53391;SDS011;41667;51.922;8.850;2022-12-07T06:01:27;7.60;;;5.75;;
53391;SDS011;41667;51.922;8.850;2022-12-07T06:03:52;6.80;;;4.97;;
53391;SDS011;41667;51.922;8.850;2022-12-07T06:06:18;17.70;;;5.83;;
53391;SDS011;41667;51.922;8.850;2022-12-07T06:08:43;9.20;;;4.50;;
53391;SDS011;41667;51.922;8.850;2022-12-07T06:11:08;11.23;;;5.05;;
53391;SDS011;41667;51.922;8.850;2022-12-07T06:13:52;9.25;;;4.90;;
53391;SDS011;41667;51.922;8.850;2022-12-07T06:16:17;11.55;;;5.10;;
53391;SDS011;41667;51.922;8.850;2022-12-07T06:18:42;11.87;;;5.30;;
53391;SDS011;41667;51.922;8.850;2022-12-07T06:21:08;11.47;;;6.13;;
53391;SDS011;41667;51.922;8.850;2022-12-07T06:23:33;11.97;;;5.27;;
53391;SDS011;41667;51.922;8.850;2022-12-07T06:25:58;13.97;;;5.57;;
53391;SDS011;41667;51.922;8.850;2022-12-07T06:28:23;13.87;;;6.60;;
53391;SDS011;41667;51.922;8.850;2022-12-07T06:30:56;10.85;;;6.18;;
53391;SDS011;41667;51.922;8.850;2022-12-07T06:33:21;10.15;;;5.90;;
53391;SDS011;41667;51.922;8.850;2022-12-07T06:35:46;14.70;;;7.20;;
53391;SDS011;41667;51.922;8.850;2022-12-07T06:38:12;14.32;;;6.88;;
53391;SDS011;41667;51.922;8.850;2022-12-07T06:40:37;15.45;;;6.47;;
53391;SDS011;41667;51.922;8.850;2022-12-07T06:43:02;8.63;;;5.67;;
53391;SDS011;41667;51.922;8.850;2022-12-07T06:45:27;9.70;;;5.23;;
53391;SDS011;41667;51.922;8.850;2022-12-07T06:47:53;8.55;;;4.95;;
53391;SDS011;41667;51.922;8.850;2022-12-07T06:50:18;9.60;;;4.47;;
53391;SDS011;41667;51.922;8.850;2022-12-07T06:52:43;8.80;;;7.57;;
53391;SDS011;41667;51.922;8.850;2022-12-07T06:55:08;15.73;;;7.03;;
53391;SDS011;41667;51.922;8.850;2022-12-07T06:57:33;11.85;;;5.13;;
53391;SDS011;41667;51.922;8.850;2022-12-07T06:59:58;7.70;;;4.70;;
53391;SDS011;41667;51.922;8.850;2022-12-07T07:02:24;8.43;;;5.45;;
53391;SDS011;41667;51.922;8.850;2022-12-07T07:04:49;9.40;;;5.63;;
53391;SDS011;41667;51.922;8.850;2022-12-07T07:07:14;13.70;;;5.73;;
53391;SDS011;41667;51.922;8.850;2022-12-07T07:09:39;12.30;;;6.80;;
53391;SDS011;41667;51.922;8.850;2022-12-07T07:12:04;12.65;;;6.57;;
53391;SDS011;41667;51.922;8.850;2022-12-07T07:14:29;19.83;;;5.87;;
53391;SDS011;41667;51.922;8.850;2022-12-07T07:16:56;8.85;;;5.38;;
53391;SDS011;41667;51.922;8.850;2022-12-07T07:19:22;12.07;;;4.55;;
53391;SDS011;41667;51.922;8.850;2022-12-07T07:21:47;12.20;;;5.22;;
53391;SDS011;41667;51.922;8.850;2022-12-07T07:24:12;10.52;;;4.90;;
53391;SDS011;41667;51.922;8.850;2022-12-07T07:26:37;7.87;;;4.53;;
53391;SDS011;41667;51.922;8.850;2022-12-07T07:29:02;11.88;;;4.82;;
53391;SDS011;41667;51.922;8.850;2022-12-07T07:31:28;7.35;;;5.13;;
53391;SDS011;41667;51.922;8.850;2022-12-07T07:33:53;12.57;;;5.27;;
53391;SDS011;41667;51.922;8.850;2022-12-07T07:36:18;8.30;;;4.97;;
53391;SDS011;41667;51.922;8.850;2022-12-07T07:38:43;8.53;;;4.37;;
53391;SDS011;41667;51.922;8.850;2022-12-07T07:41:08;10.40;;;5.13;;
53391;SDS011;41667;51.922;8.850;2022-12-07T07:43:33;10.05;;;5.50;;
53391;SDS011;41667;51.922;8.850;2022-12-07T07:45:59;8.20;;;4.40;;
53391;SDS011;41667;51.922;8.850;2022-12-07T07:48:24;7.80;;;4.97;;
53391;SDS011;41667;51.922;8.850;2022-12-07T07:50:50;9.23;;;5.03;;
53391;SDS011;41667;51.922;8.850;2022-12-07T07:53:15;10.68;;;4.60;;
53391;SDS011;41667;51.922;8.850;2022-12-07T07:55:40;7.63;;;5.03;;
53391;SDS011;41667;51.922;8.850;2022-12-07T07:58:06;7.93;;;4.20;;
53391;SDS011;41667;51.922;8.850;2022-12-07T08:00:31;11.55;;;4.80;;
53391;SDS011;41667;51.922;8.850;2022-12-07T08:02:56;8.17;;;5.13;;
53391;SDS011;41667;51.922;8.850;2022-12-07T08:05:21;10.98;;;4.68;;
53391;SDS011;41667;51.922;8.850;2022-12-07T08:07:46;12.67;;;5.43;;
53391;SDS011;41667;51.922;8.850;2022-12-07T08:10:12;10.47;;;5.10;;
53391;SDS011;41667;51.922;8.850;2022-12-07T08:12:38;6.10;;;5.03;;
53391;SDS011;41667;51.922;8.850;2022-12-07T08:15:24;9.32;;;4.88;;
53391;SDS011;41667;51.922;8.850;2022-12-07T08:17:49;8.52;;;5.13;;
53391;SDS011;41667;51.922;8.850;2022-12-07T08:20:14;9.52;;;4.07;;
53391;SDS011;41667;51.922;8.850;2022-12-07T08:22:40;13.10;;;4.70;;
53391;SDS011;41667;51.922;8.850;2022-12-07T08:25:05;10.63;;;4.57;;
53391;SDS011;41667;51.922;8.850;2022-12-07T08:27:30;5.43;;;4.30;;
53391;SDS011;41667;51.922;8.850;2022-12-07T08:29:55;9.93;;;4.00;;
53391;SDS011;41667;51.922;8.850;2022-12-07T08:32:20;5.87;;;3.90;;
53391;SDS011;41667;51.922;8.850;2022-12-07T08:34:46;8.93;;;4.50;;
53391;SDS011;41667;51.922;8.850;2022-12-07T08:37:11;5.67;;;3.83;;
53391;SDS011;41667;51.922;8.850;2022-12-07T08:39:36;8.17;;;3.73;;
53391;SDS011;41667;51.922;8.850;2022-12-07T08:42:01;6.23;;;4.53;;
53391;SDS011;41667;51.922;8.850;2022-12-07T08:44:26;6.07;;;4.27;;
53391;SDS011;41667;51.922;8.850;2022-12-07T08:46:53;7.50;;;4.57;;
53391;SDS011;41667;51.922;8.850;2022-12-07T08:49:20;7.25;;;4.35;;
53391;SDS011;41667;51.922;8.850;2022-12-07T08:51:47;17.30;;;5.97;;
53391;SDS011;41667;51.922;8.850;2022-12-07T08:54:14;10.98;;;4.78;;
53391;SDS011;41667;51.922;8.850;2022-12-07T08:56:39;8.00;;;4.07;;
53391;SDS011;41667;51.922;8.850;2022-12-07T08:59:05;16.85;;;4.82;;
53391;SDS011;41667;51.922;8.850;2022-12-07T09:01:31;6.20;;;3.97;;
53391;SDS011;41667;51.922;8.850;2022-12-07T09:03:56;7.03;;;4.10;;
53391;SDS011;41667;51.922;8.850;2022-12-07T09:06:22;9.73;;;4.22;;
53391;SDS011;41667;51.922;8.850;2022-12-07T09:08:48;4.97;;;4.03;;
53391;SDS011;41667;51.922;8.850;2022-12-07T09:11:15;8.15;;;4.20;;
53391;SDS011;41667;51.922;8.850;2022-12-07T09:13:40;9.43;;;4.75;;
53391;SDS011;41667;51.922;8.850;2022-12-07T09:16:05;14.60;;;5.67;;
53391;SDS011;41667;51.922;8.850;2022-12-07T09:18:30;9.85;;;5.18;;
53391;SDS011;41667;51.922;8.850;2022-12-07T09:20:56;12.10;;;5.60;;
53391;SDS011;41667;51.922;8.850;2022-12-07T09:23:21;10.82;;;5.13;;
53391;SDS011;41667;51.922;8.850;2022-12-07T09:25:46;13.67;;;4.70;;
53391;SDS011;41667;51.922;8.850;2022-12-07T09:28:11;13.70;;;4.93;;
53391;SDS011;41667;51.922;8.850;2022-12-07T09:30:36;8.77;;;5.37;;
53391;SDS011;41667;51.922;8.850;2022-12-07T09:33:02;16.30;;;5.27;;
53391;SDS011;41667;51.922;8.850;2022-12-07T09:35:27;9.65;;;6.13;;
53391;SDS011;41667;51.922;8.850;2022-12-07T09:37:52;10.73;;;4.47;;
53391;SDS011;41667;51.922;8.850;2022-12-07T09:40:18;7.82;;;5.07;;
53391;SDS011;41667;51.922;8.850;2022-12-07T09:42:44;9.77;;;4.72;;
53391;SDS011;41667;51.922;8.850;2022-12-07T09:45:13;13.45;;;5.70;;
53391;SDS011;41667;51.922;8.850;2022-12-07T09:47:39;12.55;;;5.22;;
53391;SDS011;41667;51.922;8.850;2022-12-07T09:50:06;9.50;;;5.28;;
53391;SDS011;41667;51.922;8.850;2022-12-07T09:52:32;8.88;;;4.88;;
53391;SDS011;41667;51.922;8.850;2022-12-07T09:54:57;6.93;;;4.15;;
53391;SDS011;41667;51.922;8.850;2022-12-07T09:57:27;15.00;;;5.60;;
53391;SDS011;41667;51.922;8.850;2022-12-07T09:59:54;9.35;;;5.20;;
53391;SDS011;41667;51.922;8.850;2022-12-07T10:02:42;7.07;;;4.15;;
53391;SDS011;41667;51.922;8.850;2022-12-07T10:05:07;7.35;;;4.18;;
53391;SDS011;41667;51.922;8.850;2022-12-07T10:07:34;5.50;;;3.33;;
53391;SDS011;41667;51.922;8.850;2022-12-07T10:10:01;4.68;;;3.38;;
53391;SDS011;41667;51.922;8.850;2022-12-07T10:12:26;9.60;;;5.18;;
53391;SDS011;41667;51.922;8.850;2022-12-07T10:14:57;11.00;;;4.57;;
53391;SDS011;41667;51.922;8.850;2022-12-07T10:25:22;9.57;;;3.75;;
53391;SDS011;41667;51.922;8.850;2022-12-07T10:27:58;8.23;;;4.05;;
53391;SDS011;41667;51.922;8.850;2022-12-07T10:30:23;5.78;;;3.08;;
53391;SDS011;41667;51.922;8.850;2022-12-07T10:32:48;4.53;;;3.40;;
53391;SDS011;41667;51.922;8.850;2022-12-07T10:37:45;4.95;;;3.50;;
53391;SDS011;41667;51.922;8.850;2022-12-07T10:43:05;4.05;;;3.63;;
53391;SDS011;41667;51.922;8.850;2022-12-07T10:45:35;5.15;;;3.58;;
53391;SDS011;41667;51.922;8.850;2022-12-07T10:48:08;5.43;;;3.95;;
53391;SDS011;41667;51.922;8.850;2022-12-07T10:53:32;9.27;;;3.77;;
53391;SDS011;41667;51.922;8.850;2022-12-07T10:56:13;4.05;;;3.17;;
53391;SDS011;41667;51.922;8.850;2022-12-07T11:06:18;7.55;;;3.53;;
53391;SDS011;41667;51.922;8.850;2022-12-07T11:11:34;7.63;;;3.88;;
53391;SDS011;41667;51.922;8.850;2022-12-07T11:16:30;6.25;;;3.22;;
53391;SDS011;41667;51.922;8.850;2022-12-07T11:19:16;3.83;;;3.38;;
53391;SDS011;41667;51.922;8.850;2022-12-07T11:21:55;7.43;;;3.05;;
53391;SDS011;41667;51.922;8.850;2022-12-07T11:24:36;4.63;;;3.08;;
53391;SDS011;41667;51.922;8.850;2022-12-07T11:32:29;8.32;;;3.40;;
53391;SDS011;41667;51.922;8.850;2022-12-07T11:37:31;4.10;;;2.87;;
53391;SDS011;41667;51.922;8.850;2022-12-07T11:40:02;8.18;;;4.75;;
53391;SDS011;41667;51.922;8.850;2022-12-07T11:42:30;9.18;;;4.65;;
53391;SDS011;41667;51.922;8.850;2022-12-07T11:50:21;6.18;;;4.38;;
53391;SDS011;41667;51.922;8.850;2022-12-07T11:52:51;4.15;;;3.20;;
53391;SDS011;41667;51.922;8.850;2022-12-07T11:55:29;16.70;;;4.50;;
53391;SDS011;41667;51.922;8.850;2022-12-07T11:58:44;9.27;;;3.75;;
53391;SDS011;41667;51.922;8.850;2022-12-07T12:00:42;8.77;;;4.03;;
53391;SDS011;41667;51.922;8.850;2022-12-07T12:03:15;11.95;;;3.65;;
53391;SDS011;41667;51.922;8.850;2022-12-07T12:05:42;4.22;;;2.85;;
53391;SDS011;41667;51.922;8.850;2022-12-07T12:10:45;6.40;;;2.60;;
53391;SDS011;41667;51.922;8.850;2022-12-07T12:16:27;8.02;;;4.00;;
53391;SDS011;41667;51.922;8.850;2022-12-07T12:18:35;5.95;;;2.75;;
53391;SDS011;41667;51.922;8.850;2022-12-07T12:23:39;6.60;;;3.17;;
53391;SDS011;41667;51.922;8.850;2022-12-07T12:26:07;8.75;;;3.50;;
53391;SDS011;41667;51.922;8.850;2022-12-07T12:33:46;8.90;;;2.88;;
53391;SDS011;41667;51.922;8.850;2022-12-07T12:41:11;6.65;;;2.40;;
53391;SDS011;41667;51.922;8.850;2022-12-07T12:43:56;2.47;;;2.28;;
53391;SDS011;41667;51.922;8.850;2022-12-07T12:49:15;4.75;;;3.05;;
53391;SDS011;41667;51.922;8.850;2022-12-07T12:51:56;10.30;;;2.88;;
53391;SDS011;41667;51.922;8.850;2022-12-07T12:54:26;5.95;;;2.42;;
53391;SDS011;41667;51.922;8.850;2022-12-07T12:59:33;3.53;;;2.10;;
53391;SDS011;41667;51.922;8.850;2022-12-07T13:04:38;1.77;;;1.67;;
53391;SDS011;41667;51.922;8.850;2022-12-07T13:07:06;7.35;;;2.70;;
53391;SDS011;41667;51.922;8.850;2022-12-07T13:09:33;4.28;;;1.92;;
53391;SDS011;41667;51.922;8.850;2022-12-07T13:12:01;3.08;;;2.13;;
53391;SDS011;41667;51.922;8.850;2022-12-07T13:14:43;4.80;;;2.47;;
53391;SDS011;41667;51.922;8.850;2022-12-07T13:19:58;2.38;;;2.17;;
53391;SDS011;41667;51.922;8.850;2022-12-07T13:24:58;3.80;;;2.50;;
53391;SDS011;41667;51.922;8.850;2022-12-07T13:27:27;12.00;;;3.15;;
53391;SDS011;41667;51.922;8.850;2022-12-07T13:29:52;5.40;;;2.73;;
53391;SDS011;41667;51.922;8.850;2022-12-07T13:32:24;3.60;;;2.20;;
53391;SDS011;41667;51.922;8.850;2022-12-07T13:34:50;4.97;;;2.20;;
53391;SDS011;41667;51.922;8.850;2022-12-07T13:37:28;9.57;;;3.37;;
53391;SDS011;41667;51.922;8.850;2022-12-07T13:39:58;5.72;;;3.05;;
53391;SDS011;41667;51.922;8.850;2022-12-07T13:44:52;6.80;;;2.97;;
53391;SDS011;41667;51.922;8.850;2022-12-07T13:47:31;7.43;;;2.50;;
53391;SDS011;41667;51.922;8.850;2022-12-07T13:52:26;5.78;;;1.88;;
53391;SDS011;41667;51.922;8.850;2022-12-07T13:54:57;4.00;;;1.92;;
53391;SDS011;41667;51.922;8.850;2022-12-07T13:57:22;3.00;;;1.80;;
53391;SDS011;41667;51.922;8.850;2022-12-07T13:59:49;4.72;;;1.92;;
53391;SDS011;41667;51.922;8.850;2022-12-07T14:02:21;2.03;;;1.75;;
53391;SDS011;41667;51.922;8.850;2022-12-07T14:04:48;3.92;;;1.80;;
53391;SDS011;41667;51.922;8.850;2022-12-07T14:07:24;8.23;;;1.92;;
53391;SDS011;41667;51.922;8.850;2022-12-07T14:09:54;8.48;;;1.50;;
53391;SDS011;41667;51.922;8.850;2022-12-07T14:12:19;2.67;;;1.60;;
53391;SDS011;41667;51.922;8.850;2022-12-07T14:14:46;10.32;;;1.67;;
53391;SDS011;41667;51.922;8.850;2022-12-07T14:17:15;4.03;;;2.20;;
53391;SDS011;41667;51.922;8.850;2022-12-07T14:19:42;6.07;;;1.98;;
53391;SDS011;41667;51.922;8.850;2022-12-07T14:22:08;3.72;;;1.48;;
53391;SDS011;41667;51.922;8.850;2022-12-07T14:24:41;4.65;;;1.90;;
53391;SDS011;41667;51.922;8.850;2022-12-07T14:27:15;5.53;;;2.72;;
53391;SDS011;41667;51.922;8.850;2022-12-07T14:29:41;8.80;;;3.17;;
53391;SDS011;41667;51.922;8.850;2022-12-07T14:34:56;3.25;;;2.17;;
53391;SDS011;41667;51.922;8.850;2022-12-07T14:37:22;6.75;;;2.72;;
53391;SDS011;41667;51.922;8.850;2022-12-07T14:39:48;7.10;;;2.70;;
53391;SDS011;41667;51.922;8.850;2022-12-07T14:42:13;3.30;;;2.38;;
53391;SDS011;41667;51.922;8.850;2022-12-07T14:44:39;9.57;;;3.00;;
53391;SDS011;41667;51.922;8.850;2022-12-07T14:47:04;11.95;;;3.92;;
53391;SDS011;41667;51.922;8.850;2022-12-07T14:49:29;11.05;;;4.22;;
53391;SDS011;41667;51.922;8.850;2022-12-07T14:51:54;6.20;;;3.03;;
53391;SDS011;41667;51.922;8.850;2022-12-07T14:54:20;6.35;;;3.60;;
53391;SDS011;41667;51.922;8.850;2022-12-07T14:56:46;7.03;;;2.58;;
53391;SDS011;41667;51.922;8.850;2022-12-07T14:59:14;5.57;;;3.03;;
53391;SDS011;41667;51.922;8.850;2022-12-07T15:01:39;5.40;;;3.13;;
53391;SDS011;41667;51.922;8.850;2022-12-07T15:04:05;7.65;;;2.70;;
53391;SDS011;41667;51.922;8.850;2022-12-07T15:06:30;11.60;;;4.57;;
53391;SDS011;41667;51.922;8.850;2022-12-07T15:08:55;6.50;;;4.75;;
53391;SDS011;41667;51.922;8.850;2022-12-07T15:11:20;8.35;;;3.83;;
53391;SDS011;41667;51.922;8.850;2022-12-07T15:13:46;6.80;;;3.88;;
53391;SDS011;41667;51.922;8.850;2022-12-07T15:16:30;5.88;;;3.67;;
53391;SDS011;41667;51.922;8.850;2022-12-07T15:18:55;5.78;;;3.10;;
53391;SDS011;41667;51.922;8.850;2022-12-07T15:21:20;5.95;;;3.47;;
53391;SDS011;41667;51.922;8.850;2022-12-07T15:23:46;6.55;;;3.30;;
53391;SDS011;41667;51.922;8.850;2022-12-07T15:26:11;9.20;;;3.35;;
53391;SDS011;41667;51.922;8.850;2022-12-07T15:28:37;5.95;;;3.35;;
53391;SDS011;41667;51.922;8.850;2022-12-07T15:31:02;7.87;;;3.40;;
53391;SDS011;41667;51.922;8.850;2022-12-07T15:33:27;4.87;;;3.33;;
53391;SDS011;41667;51.922;8.850;2022-12-07T15:35:52;3.75;;;2.90;;
53391;SDS011;41667;51.922;8.850;2022-12-07T15:38:18;4.90;;;2.75;;
53391;SDS011;41667;51.922;8.850;2022-12-07T15:40:46;6.13;;;2.97;;
53391;SDS011;41667;51.922;8.850;2022-12-07T15:43:11;8.98;;;2.90;;
53391;SDS011;41667;51.922;8.850;2022-12-07T15:45:56;6.97;;;2.72;;
53391;SDS011;41667;51.922;8.850;2022-12-07T15:48:21;11.67;;;4.03;;
53391;SDS011;41667;51.922;8.850;2022-12-07T15:50:46;6.85;;;3.42;;
53391;SDS011;41667;51.922;8.850;2022-12-07T15:53:11;6.50;;;3.08;;
53391;SDS011;41667;51.922;8.850;2022-12-07T15:55:40;4.70;;;3.17;;
53391;SDS011;41667;51.922;8.850;2022-12-07T15:58:05;5.85;;;3.05;;
53391;SDS011;41667;51.922;8.850;2022-12-07T16:00:30;9.88;;;2.72;;
53391;SDS011;41667;51.922;8.850;2022-12-07T16:02:56;6.38;;;3.33;;
53391;SDS011;41667;51.922;8.850;2022-12-07T16:05:21;5.47;;;3.03;;
53391;SDS011;41667;51.922;8.850;2022-12-07T16:07:46;7.43;;;2.90;;
53391;SDS011;41667;51.922;8.850;2022-12-07T16:10:12;12.20;;;3.80;;
53391;SDS011;41667;51.922;8.850;2022-12-07T16:12:37;4.97;;;3.15;;
53391;SDS011;41667;51.922;8.850;2022-12-07T16:15:02;6.72;;;2.80;;
53391;SDS011;41667;51.922;8.850;2022-12-07T16:17:27;9.35;;;3.50;;
53391;SDS011;41667;51.922;8.850;2022-12-07T16:19:52;6.77;;;3.13;;
53391;SDS011;41667;51.922;8.850;2022-12-07T16:22:18;7.50;;;3.88;;
53391;SDS011;41667;51.922;8.850;2022-12-07T16:24:43;7.40;;;4.30;;
53391;SDS011;41667;51.922;8.850;2022-12-07T16:27:08;11.18;;;3.88;;
53391;SDS011;41667;51.922;8.850;2022-12-07T16:29:33;3.37;;;3.07;;
53391;SDS011;41667;51.922;8.850;2022-12-07T16:31:59;9.60;;;4.07;;